Time;durP1;ratioP1;P1;durP2;ratioP2;P2;SDS_P1;SDS_P2;PMS_P1;PMS_P2;Temp;Humidity;BMP_temperature;BMP_pressure;BME280_temperature;BME280_humidity;BME280_pressure;Samples;Min_cycle;Max_cycle;Signal;HPM_P1;HPM_P2
2023/04/30 00:01:03;;;;;;;7.75;3.75;;;9.00;99.90;;;;;;5049153;28;20029;-72
2023/04/30 00:03:28;;;;;;;7.35;3.33;;;9.00;99.90;;;;;;5048509;28;20041;-70
2023/04/30 00:05:54;;;;;;;12.73;3.60;;;9.00;99.90;;;;;;5048050;28;20037;-70
2023/04/30 00:08:19;;;;;;;8.63;3.97;;;9.00;99.90;;;;;;5047972;28;20037;-70
2023/04/30 00:10:45;;;;;;;10.57;3.80;;;8.90;99.90;;;;;;5048403;28;20035;-70
2023/04/30 00:13:12;;;;;;;6.85;2.83;;;8.90;99.90;;;;;;5048520;28;20068;-70
2023/04/30 00:15:38;;;;;;;10.35;4.43;;;8.80;99.90;;;;;;5049273;28;20017;-70
2023/04/30 00:18:05;;;;;;;6.50;3.83;;;8.80;99.90;;;;;;5031704;28;20091;-70
2023/04/30 00:20:31;;;;;;;9.70;3.88;;;8.70;99.90;;;;;;5037632;28;20029;-70
2023/04/30 00:22:57;;;;;;;14.23;3.60;;;8.80;99.90;;;;;;5048727;28;20492;-70
2023/04/30 00:25:23;;;;;;;9.77;3.92;;;8.80;99.90;;;;;;5031481;28;20057;-70
2023/04/30 00:27:49;;;;;;;9.25;3.90;;;8.80;99.90;;;;;;5048885;28;20037;-70
2023/04/30 00:30:14;;;;;;;12.13;3.45;;;8.80;99.90;;;;;;5030738;28;20044;-70
2023/04/30 00:32:40;;;;;;;13.88;4.38;;;8.80;99.90;;;;;;5049180;28;20108;-70
2023/04/30 00:35:06;;;;;;;8.27;3.70;;;8.70;99.90;;;;;;5035858;28;20396;-70
2023/04/30 00:37:31;;;;;;;6.82;3.83;;;8.70;99.90;;;;;;5048296;28;20108;-70
2023/04/30 00:40:00;;;;;;;10.05;3.50;;;8.70;99.90;;;;;;5038942;28;20477;-70
2023/04/30 00:42:25;;;;;;;11.85;4.40;;;8.60;99.90;;;;;;5044591;28;20404;-71
2023/04/30 00:44:51;;;;;;;8.65;4.07;;;8.60;99.90;;;;;;5046196;28;20033;-70
2023/04/30 00:47:17;;;;;;;8.05;4.50;;;8.60;99.90;;;;;;5042718;28;20093;-70
2023/04/30 00:49:42;;;;;;;17.98;4.20;;;8.60;99.90;;;;;;5048021;28;20109;-71
2023/04/30 00:52:08;;;;;;;10.60;4.18;;;8.60;99.90;;;;;;5048713;28;20692;-70
2023/04/30 00:54:33;;;;;;;7.75;3.85;;;8.60;99.90;;;;;;5034868;28;20075;-70
2023/04/30 00:56:59;;;;;;;9.02;4.00;;;8.50;99.90;;;;;;5047607;28;20036;-69
2023/04/30 00:59:26;;;;;;;16.20;4.22;;;8.50;99.90;;;;;;5047145;28;20025;-70
2023/04/30 01:01:52;;;;;;;12.88;4.50;;;8.40;99.90;;;;;;5048839;28;20060;-70
2023/04/30 01:04:19;;;;;;;10.35;4.55;;;8.40;99.90;;;;;;5048001;28;20029;-70
2023/04/30 01:06:45;;;;;;;9.13;4.22;;;8.40;99.90;;;;;;5034129;28;20040;-70
2023/04/30 01:09:11;;;;;;;15.93;4.82;;;8.40;99.90;;;;;;5047513;28;20040;-71
2023/04/30 01:11:42;;;;;;;13.43;4.20;;;8.50;99.90;;;;;;5038182;28;20032;-70
2023/04/30 01:14:16;;;;;;;9.80;4.60;;;8.40;99.90;;;;;;5033099;28;20450;-70
2023/04/30 01:17:07;;;;;;;10.05;4.47;;;8.40;99.90;;;;;;5035188;28;20066;-73
2023/04/30 01:19:43;;;;;;;8.80;3.80;;;8.40;99.90;;;;;;5046825;28;20122;-70
2023/04/30 01:22:17;;;;;;;9.02;4.20;;;8.40;99.90;;;;;;5047461;28;20580;-74
2023/04/30 01:25:06;;;;;;;11.02;4.07;;;8.40;99.90;;;;;;5047142;28;20638;-70
2023/04/30 01:28:01;;;;;;;12.45;5.00;;;8.40;99.90;;;;;;5042766;28;20032;-70
2023/04/30 01:30:30;;;;;;;12.23;5.00;;;8.50;99.90;;;;;;5046474;28;20025;-70
2023/04/30 01:32:55;;;;;;;10.40;4.60;;;8.50;99.90;;;;;;5047231;28;20040;-70
2023/04/30 01:35:45;;;;;;;11.95;5.10;;;8.40;99.90;;;;;;5030658;28;20025;-71
2023/04/30 01:38:32;;;;;;;14.63;5.22;;;8.40;99.90;;;;;;5007813;28;20390;-70
2023/04/30 01:41:16;;;;;;;11.77;4.05;;;8.40;99.90;;;;;;5047036;28;20517;-70
2023/04/30 01:44:07;;;;;;;11.75;4.95;;;8.30;99.90;;;;;;5048745;28;20036;-70
2023/04/30 01:46:33;;;;;;;14.27;4.75;;;8.30;99.90;;;;;;5046874;28;20119;-69
2023/04/30 01:49:24;;;;;;;10.02;4.10;;;8.20;99.90;;;;;;5051825;28;20392;-70
2023/04/30 01:52:08;;;;;;;14.60;4.43;;;8.20;99.90;;;;;;5034967;28;20397;-70
2023/04/30 01:54:54;;;;;;;8.15;4.50;;;8.20;99.90;;;;;;5035731;28;20041;-70
2023/04/30 01:57:33;;;;;;;8.82;4.10;;;8.20;99.90;;;;;;5039511;28;20132;-71
2023/04/30 02:00:03;;;;;;;9.60;3.83;;;8.20;99.90;;;;;;5050738;28;20033;-70
2023/04/30 02:02:29;;;;;;;12.20;4.65;;;8.20;99.90;;;;;;5031739;28;20071;-70
2023/04/30 02:04:54;;;;;;;16.60;5.53;;;8.20;99.90;;;;;;5036892;28;20029;-70
2023/04/30 02:07:42;;;;;;;11.48;4.93;;;8.10;99.90;;;;;;5049436;28;20036;-70
2023/04/30 02:10:09;;;;;;;14.70;4.35;;;8.10;99.90;;;;;;5049703;28;20048;-70
2023/04/30 02:12:34;;;;;;;11.20;4.47;;;8.10;99.90;;;;;;5050653;28;20091;-70
2023/04/30 02:15:01;;;;;;;9.95;4.13;;;8.10;99.90;;;;;;5037435;28;20504;-70
2023/04/30 02:17:26;;;;;;;10.75;4.30;;;8.10;99.90;;;;;;5050290;28;20040;-70
2023/04/30 02:19:52;;;;;;;13.63;5.35;;;8.00;99.90;;;;;;5041690;28;20717;-73
2023/04/30 02:22:18;;;;;;;13.57;5.00;;;8.00;99.90;;;;;;5050323;28;20029;-71
2023/04/30 02:24:43;;;;;;;10.50;4.57;;;8.00;99.90;;;;;;5050468;28;20067;-70
2023/04/30 02:27:09;;;;;;;9.93;4.30;;;8.00;99.90;;;;;;5037225;28;20041;-74
2023/04/30 02:29:34;;;;;;;11.23;4.97;;;8.00;99.90;;;;;;5050480;28;20036;-70
2023/04/30 02:32:00;;;;;;;10.23;5.07;;;8.00;99.90;;;;;;5050625;28;20413;-70
2023/04/30 02:34:28;;;;;;;11.68;5.18;;;8.00;99.90;;;;;;5049649;28;20110;-70
2023/04/30 02:36:54;;;;;;;11.57;4.78;;;8.00;99.90;;;;;;5051156;28;20067;-70
2023/04/30 02:39:20;;;;;;;11.05;5.20;;;7.90;99.90;;;;;;5031437;28;20489;-71
2023/04/30 02:41:48;;;;;;;12.65;4.72;;;7.90;99.90;;;;;;5050556;28;20419;-71
2023/04/30 02:44:14;;;;;;;10.82;4.13;;;7.90;99.90;;;;;;5050020;28;20094;-70
2023/04/30 02:46:40;;;;;;;8.07;4.25;;;7.90;99.90;;;;;;5039123;28;20107;-70
2023/04/30 02:49:05;;;;;;;10.73;5.25;;;7.90;99.90;;;;;;5049735;28;20196;-71
2023/04/30 02:51:31;;;;;;;14.00;5.20;;;7.90;99.90;;;;;;5048932;28;20032;-70
2023/04/30 02:53:57;;;;;;;16.42;4.70;;;7.90;99.90;;;;;;5050084;28;20025;-70
2023/04/30 02:56:28;;;;;;;7.45;3.75;;;8.00;99.90;;;;;;5039289;28;20039;-70
2023/04/30 02:58:54;;;;;;;8.57;4.32;;;7.90;99.90;;;;;;5049141;28;20071;-70
2023/04/30 03:01:22;;;;;;;9.57;4.03;;;7.80;99.90;;;;;;5048907;28;20037;-70
2023/04/30 03:03:48;;;;;;;7.93;4.32;;;7.80;99.90;;;;;;5037211;28;20056;-70
2023/04/30 03:06:13;;;;;;;8.27;3.90;;;7.70;99.90;;;;;;5037175;28;20125;-70
2023/04/30 03:08:42;;;;;;;10.40;3.60;;;7.70;99.90;;;;;;5049649;28;20033;-70
2023/04/30 03:11:13;;;;;;;8.90;4.60;;;7.70;99.90;;;;;;5048407;28;20036;-70
2023/04/30 03:13:40;;;;;;;9.45;4.10;;;7.70;99.90;;;;;;5048860;28;20056;-71
2023/04/30 03:16:08;;;;;;;15.60;5.05;;;7.60;99.90;;;;;;5042680;28;20028;-71
2023/04/30 03:18:34;;;;;;;7.32;3.35;;;7.60;99.90;;;;;;5049451;28;22875;-70
2023/04/30 03:20:59;;;;;;;7.85;4.10;;;7.60;99.90;;;;;;5038635;28;20029;-70
2023/04/30 03:23:27;;;;;;;7.70;3.78;;;7.60;99.90;;;;;;5048846;28;20067;-70
2023/04/30 03:25:52;;;;;;;10.15;4.07;;;7.70;99.90;;;;;;5042261;28;20037;-70
2023/04/30 03:28:21;;;;;;;8.20;3.53;;;7.70;99.90;;;;;;5048842;28;20035;-71
2023/04/30 03:30:49;;;;;;;9.13;4.38;;;7.70;99.90;;;;;;5050253;28;20053;-70
2023/04/30 03:33:18;;;;;;;9.13;3.50;;;7.60;99.90;;;;;;5047031;28;20381;-71
2023/04/30 03:35:48;;;;;;;8.65;3.60;;;7.60;99.90;;;;;;5035778;28;20032;-70
2023/04/30 03:38:14;;;;;;;8.40;3.15;;;7.60;99.90;;;;;;5049487;28;20052;-71
2023/04/30 03:40:39;;;;;;;9.15;3.63;;;7.50;99.90;;;;;;5037354;28;20067;-70
2023/04/30 03:43:08;;;;;;;10.15;3.63;;;7.50;99.90;;;;;;5038936;28;20033;-70
2023/04/30 03:45:34;;;;;;;12.40;4.10;;;7.50;99.90;;;;;;5035228;28;20060;-69
2023/04/30 03:48:02;;;;;;;8.63;3.88;;;7.50;99.90;;;;;;5049137;28;20059;-70
2023/04/30 03:50:31;;;;;;;9.68;3.17;;;7.50;99.90;;;;;;5048573;28;20120;-70
2023/04/30 03:52:56;;;;;;;7.10;3.40;;;7.50;99.90;;;;;;5049774;28;20052;-70
2023/04/30 03:55:22;;;;;;;7.68;3.10;;;7.50;99.90;;;;;;5029774;28;20641;-71
2023/04/30 03:57:47;;;;;;;7.60;2.40;;;7.50;99.90;;;;;;5037090;28;20048;-70
2023/04/30 04:00:19;;;;;;;14.30;3.42;;;7.60;99.90;;;;;;5038465;28;20052;-70
2023/04/30 04:02:48;;;;;;;6.75;2.72;;;7.60;99.90;;;;;;5049333;28;20036;-70
2023/04/30 04:05:14;;;;;;;7.55;3.80;;;7.60;99.90;;;;;;5047850;28;20025;-70
2023/04/30 04:07:42;;;;;;;9.73;2.85;;;7.60;99.90;;;;;;5043301;28;20029;-70
2023/04/30 04:10:08;;;;;;;6.72;2.50;;;7.70;99.90;;;;;;5048230;28;20573;-70
2023/04/30 04:12:33;;;;;;;7.03;3.08;;;7.70;99.90;;;;;;5035129;28;20037;-70
2023/04/30 04:14:59;;;;;;;9.13;3.38;;;7.70;99.90;;;;;;5039507;28;20104;-69
2023/04/30 04:17:25;;;;;;;9.98;3.15;;;7.80;99.90;;;;;;5048104;28;20033;-70
2023/04/30 04:19:50;;;;;;;5.38;2.92;;;7.70;99.90;;;;;;5034259;28;20024;-70
2023/04/30 04:22:16;;;;;;;5.63;3.13;;;7.70;99.90;;;;;;5029392;28;20036;-71
2023/04/30 04:24:41;;;;;;;8.70;3.28;;;7.70;99.90;;;;;;5030779;28;20041;-70
2023/04/30 04:27:07;;;;;;;5.53;2.33;;;7.70;99.90;;;;;;5038641;28;20048;-70
2023/04/30 04:29:33;;;;;;;6.50;3.10;;;7.70;99.90;;;;;;5037522;28;20033;-70
2023/04/30 04:32:03;;;;;;;6.80;3.30;;;7.80;99.90;;;;;;5048927;28;20032;-70
2023/04/30 04:34:28;;;;;;;7.90;2.38;;;7.90;99.90;;;;;;5034528;28;20151;-70
2023/04/30 04:36:54;;;;;;;7.32;2.97;;;7.80;99.90;;;;;;5048523;28;20049;-70
2023/04/30 04:39:19;;;;;;;5.05;2.53;;;7.80;99.90;;;;;;5029598;28;20040;-72
2023/04/30 04:41:45;;;;;;;5.05;2.55;;;7.80;99.90;;;;;;5048496;28;20670;-70
2023/04/30 04:44:10;;;;;;;6.45;3.25;;;7.80;99.90;;;;;;5048081;28;20659;-71
2023/04/30 04:46:43;;;;;;;6.78;2.90;;;7.80;99.90;;;;;;5028781;28;20034;-70
2023/04/30 04:49:12;;;;;;;8.13;3.72;;;7.80;99.90;;;;;;5048011;28;20083;-71
2023/04/30 04:51:38;;;;;;;6.57;2.63;;;7.80;99.90;;;;;;5037514;28;20520;-70
2023/04/30 04:54:04;;;;;;;8.18;3.13;;;7.80;99.90;;;;;;5048007;28;20029;-70
2023/04/30 04:56:30;;;;;;;5.82;2.80;;;7.80;99.90;;;;;;5046588;28;20320;-69
2023/04/30 04:58:55;;;;;;;6.93;3.33;;;7.90;99.90;;;;;;5047257;28;20479;-70
2023/04/30 05:01:21;;;;;;;6.43;3.13;;;7.90;99.90;;;;;;5047997;28;20036;-71
2023/04/30 05:03:47;;;;;;;6.95;3.60;;;7.90;99.90;;;;;;5051126;28;20033;-70
2023/04/30 05:06:16;;;;;;;5.60;2.50;;;7.90;99.90;;;;;;5033884;28;20154;-71
2023/04/30 05:08:42;;;;;;;7.82;3.28;;;8.00;99.90;;;;;;5050699;28;20059;-70
2023/04/30 05:11:07;;;;;;;6.95;3.10;;;8.00;99.90;;;;;;5048033;28;20417;-70
2023/04/30 05:13:36;;;;;;;7.95;2.70;;;8.00;99.90;;;;;;5037462;28;20485;-70
2023/04/30 05:16:02;;;;;;;6.93;3.35;;;8.00;99.90;;;;;;5047098;28;20033;-70
2023/04/30 05:18:27;;;;;;;6.35;3.28;;;8.00;99.90;;;;;;5046073;28;20515;-71
2023/04/30 05:20:53;;;;;;;5.03;2.53;;;8.00;99.90;;;;;;5028645;28;20033;-71
2023/04/30 05:23:18;;;;;;;8.00;3.10;;;8.10;99.90;;;;;;5030689;28;20029;-71
2023/04/30 05:25:44;;;;;;;5.55;3.17;;;8.10;99.90;;;;;;5031699;28;20032;-70
2023/04/30 05:28:10;;;;;;;8.18;2.67;;;8.10;99.90;;;;;;5033713;28;20029;-70
2023/04/30 05:30:35;;;;;;;4.97;2.50;;;8.10;99.90;;;;;;5031455;28;20032;-70
2023/04/30 05:33:01;;;;;;;6.13;2.90;;;8.10;99.90;;;;;;5047010;28;20036;-70
2023/04/30 05:35:30;;;;;;;9.05;3.55;;;8.20;99.90;;;;;;5026714;28;20078;-70
2023/04/30 05:37:56;;;;;;;6.60;2.60;;;8.30;99.90;;;;;;5031928;28;20032;-70
2023/04/30 05:40:21;;;;;;;7.82;2.90;;;8.30;99.90;;;;;;5034994;28;20060;-70
2023/04/30 05:42:47;;;;;;;6.72;2.67;;;8.30;99.90;;;;;;5037353;28;20017;-71
2023/04/30 05:45:16;;;;;;;7.13;2.75;;;8.40;99.90;;;;;;5045577;28;20489;-71
2023/04/30 05:47:44;;;;;;;8.98;4.18;;;8.50;99.90;;;;;;5030529;28;20049;-70
2023/04/30 05:50:10;;;;;;;6.50;2.05;;;8.60;99.90;;;;;;5045624;28;20029;-72
2023/04/30 05:52:41;;;;;;;6.28;2.30;;;8.70;99.90;;;;;;5046770;28;20029;-70
2023/04/30 05:55:08;;;;;;;4.72;2.30;;;9.00;99.90;;;;;;5046445;28;20641;-71
2023/04/30 05:57:34;;;;;;;4.10;2.08;;;9.30;99.90;;;;;;5034437;28;20282;-71
2023/04/30 06:00:05;;;;;;;4.05;2.10;;;10.10;99.90;;;;;;5044910;28;20033;-70
2023/04/30 06:02:31;;;;;;;6.97;1.95;;;11.40;99.90;;;;;;5042891;28;20048;-71
2023/04/30 06:05:02;;;;;;;4.25;1.65;;;12.90;99.90;;;;;;5045361;28;20028;-70
2023/04/30 06:07:28;;;;;;;2.63;1.35;;;14.40;99.90;;;;;;5043851;28;20499;-71
2023/04/30 06:09:53;;;;;;;4.32;1.33;;;15.60;99.90;;;;;;5045934;28;20044;-70
2023/04/30 06:12:19;;;;;;;4.07;1.20;;;16.40;99.90;;;;;;5045723;28;20074;-71
2023/04/30 06:14:48;;;;;;;2.67;1.23;;;17.10;99.90;;;;;;5047303;28;20025;-71
2023/04/30 06:17:14;;;;;;;3.58;1.55;;;18.00;99.90;;;;;;5034369;28;20634;-72
2023/04/30 06:19:40;;;;;;;2.97;1.00;;;18.70;99.90;;;;;;5044218;28;20036;-70
2023/04/30 06:22:05;;;;;;;3.63;1.35;;;19.40;97.50;;;;;;5033843;28;20025;-70
2023/04/30 06:24:31;;;;;;;2.45;1.02;;;19.90;97.70;;;;;;5043319;28;20481;-71
2023/04/30 06:27:00;;;;;;;1.75;0.80;;;20.50;96.30;;;;;;5031206;28;20696;-71
2023/04/30 06:29:25;;;;;;;4.03;1.50;;;21.10;96.50;;;;;;5034437;28;20041;-70
2023/04/30 06:31:51;;;;;;;2.13;1.65;;;21.90;93.90;;;;;;5035724;28;20040;-70
2023/04/30 06:34:18;;;;;;;4.30;1.80;;;22.20;94.30;;;;;;5041180;28;20106;-71
2023/04/30 06:36:44;;;;;;;4.90;2.25;;;22.30;93.00;;;;;;5030608;28;20478;-70
2023/04/30 06:39:15;;;;;;;5.97;1.73;;;22.80;92.00;;;;;;5035734;28;20045;-70
2023/04/30 06:41:41;;;;;;;3.75;1.65;;;22.60;91.30;;;;;;5034537;28;20044;-72
2023/04/30 06:44:08;;;;;;;4.35;1.95;;;22.30;91.30;;;;;;5040207;28;20037;-71
2023/04/30 06:46:33;;;;;;;5.40;1.98;;;22.90;90.50;;;;;;5047049;28;20029;-72
2023/04/30 06:48:59;;;;;;;2.63;1.88;;;23.00;90.20;;;;;;5047181;28;20048;-71
2023/04/30 06:51:25;;;;;;;5.20;2.25;;;22.50;90.80;;;;;;5043369;28;20088;-72
2023/04/30 06:53:56;;;;;;;4.20;2.13;;;22.90;89.50;;;;;;5046509;28;20047;-71
2023/04/30 06:56:23;;;;;;;4.93;2.45;;;22.40;89.20;;;;;;5035260;28;20031;-71
2023/04/30 06:58:49;;;;;;;4.25;2.95;;;22.10;90.00;;;;;;5047120;28;20064;-71
2023/04/30 07:01:14;;;;;;;3.08;2.40;;;22.40;90.40;;;;;;5046477;28;20102;-72
2023/04/30 07:03:40;;;;;;;3.95;2.20;;;22.40;89.90;;;;;;5045110;28;20033;-72
2023/04/30 07:06:09;;;;;;;5.82;2.92;;;22.40;89.70;;;;;;5047981;28;20033;-72
2023/04/30 07:08:39;;;;;;;5.75;2.88;;;22.60;90.20;;;;;;5047987;28;20528;-71
2023/04/30 07:11:05;;;;;;;8.18;3.35;;;22.70;90.40;;;;;;5049806;28;20075;-71
2023/04/30 07:13:31;;;;;;;4.95;2.47;;;22.70;89.70;;;;;;5039828;28;20060;-72
2023/04/30 07:15:58;;;;;;;3.97;2.28;;;22.60;89.40;;;;;;5054441;28;20033;-75
2023/04/30 07:18:33;;;;;;;3.88;2.70;;;22.60;88.30;;;;;;5037729;28;20068;-72
2023/04/30 07:20:58;;;;;;;4.30;2.40;;;22.20;88.20;;;;;;5044105;28;20032;-70
2023/04/30 07:23:24;;;;;;;5.28;1.70;;;21.80;90.20;;;;;;5042931;28;20037;-71
2023/04/30 07:25:52;;;;;;;4.40;2.17;;;21.40;89.80;;;;;;5048820;28;20033;-71
2023/04/30 07:28:18;;;;;;;2.17;1.58;;;20.50;91.20;;;;;;5038394;28;20040;-72
2023/04/30 07:30:43;;;;;;;2.80;1.23;;;19.60;91.30;;;;;;5037253;28;20044;-72
2023/04/30 07:33:09;;;;;;;2.60;1.50;;;19.10;92.60;;;;;;5047277;28;20032;-72
2023/04/30 07:35:35;;;;;;;5.50;1.23;;;18.60;93.60;;;;;;5045785;28;20048;-71
2023/04/30 07:38:01;;;;;;;6.57;1.73;;;18.30;93.40;;;;;;5038377;28;20392;-71
2023/04/30 07:40:29;;;;;;;2.75;1.38;;;18.00;93.90;;;;;;5034726;28;20121;-70
2023/04/30 07:42:54;;;;;;;2.90;1.38;;;17.40;95.00;;;;;;5047034;28;20041;-72
2023/04/30 07:45:20;;;;;;;4.32;1.45;;;17.20;95.20;;;;;;5045658;28;20037;-70
2023/04/30 07:47:46;;;;;;;3.60;1.40;;;17.00;96.20;;;;;;5047373;28;20070;-71
2023/04/30 07:50:18;;;;;;;4.15;1.60;;;16.90;96.00;;;;;;5046257;28;20048;-72
2023/04/30 07:52:43;;;;;;;6.07;1.33;;;16.90;95.60;;;;;;5029296;28;20056;-71
2023/04/30 07:55:15;;;;;;;2.97;1.40;;;16.70;95.90;;;;;;5040718;28;20178;-71
2023/04/30 07:57:41;;;;;;;3.40;1.48;;;16.60;96.60;;;;;;5042544;28;20037;-71
2023/04/30 08:00:07;;;;;;;3.30;1.40;;;16.50;96.30;;;;;;5046912;28;20055;-71
2023/04/30 08:02:46;;;;;;;2.22;1.30;;;16.60;96.50;;;;;;5045833;28;20065;-70
2023/04/30 08:05:15;;;;;;;1.97;1.13;;;16.50;96.60;;;;;;5043228;28;20056;-71
2023/04/30 08:07:41;;;;;;;2.95;1.50;;;16.50;97.20;;;;;;5043146;28;20041;-70
2023/04/30 08:10:07;;;;;;;2.67;1.25;;;16.50;96.30;;;;;;5046481;28;20064;-71
2023/04/30 08:12:38;;;;;;;4.18;1.23;;;16.40;97.10;;;;;;5036013;28;20052;-72
2023/04/30 08:15:07;;;;;;;4.50;1.40;;;16.40;96.70;;;;;;5057451;28;20056;-71
2023/04/30 08:17:33;;;;;;;6.13;1.48;;;16.20;96.40;;;;;;5035738;28;20041;-70
2023/04/30 08:20:05;;;;;;;2.80;1.35;;;16.30;97.30;;;;;;5039297;28;20539;-71
2023/04/30 08:22:31;;;;;;;4.05;1.10;;;16.30;97.10;;;;;;5035213;28;20041;-71
2023/04/30 08:24:57;;;;;;;2.22;1.10;;;16.30;96.70;;;;;;5047333;28;20063;-71
2023/04/30 08:27:25;;;;;;;6.70;1.20;;;16.40;97.70;;;;;;5045468;28;20025;-71
2023/04/30 08:29:54;;;;;;;3.22;1.17;;;16.50;97.90;;;;;;5042216;28;20041;-70
2023/04/30 08:32:20;;;;;;;4.00;1.20;;;16.60;98.30;;;;;;5036888;28;20041;-71
2023/04/30 08:34:45;;;;;;;3.17;1.23;;;16.70;97.00;;;;;;5046598;28;20515;-70
2023/04/30 08:37:14;;;;;;;2.92;1.10;;;16.60;96.70;;;;;;5046520;28;20033;-70
2023/04/30 08:39:43;;;;;;;3.80;1.60;;;16.50;96.50;;;;;;5032664;28;20033;-71
2023/04/30 08:42:13;;;;;;;3.15;1.20;;;16.60;96.80;;;;;;5042483;28;20090;-71
2023/04/30 08:44:42;;;;;;;3.10;1.08;;;16.50;97.10;;;;;;5045790;28;20078;-70
2023/04/30 08:47:12;;;;;;;2.75;1.30;;;16.40;97.30;;;;;;5024360;28;20488;-71
2023/04/30 08:49:37;;;;;;;2.33;1.10;;;16.50;97.70;;;;;;5031635;28;20420;-71
2023/04/30 08:52:03;;;;;;;3.65;1.00;;;16.60;96.60;;;;;;5045684;28;20041;-71
2023/04/30 08:54:34;;;;;;;1.88;1.23;;;16.60;95.90;;;;;;5044840;28;20622;-71
2023/04/30 08:57:03;;;;;;;7.43;1.27;;;16.60;96.20;;;;;;5045808;28;20047;-71
2023/04/30 08:59:29;;;;;;;2.35;0.95;;;16.60;96.80;;;;;;5043905;28;20408;-70
2023/04/30 09:01:55;;;;;;;1.77;1.00;;;16.60;96.60;;;;;;5035922;28;20083;-71
2023/04/30 09:04:21;;;;;;;2.08;1.17;;;16.70;97.40;;;;;;5033163;28;20053;-71
2023/04/30 09:06:46;;;;;;;3.40;0.95;;;16.80;96.90;;;;;;5044323;28;20063;-71
2023/04/30 09:09:14;;;;;;;2.85;1.40;;;16.80;96.90;;;;;;5045307;28;20458;-73
2023/04/30 09:11:42;;;;;;;3.38;1.27;;;16.80;96.90;;;;;;5040504;28;20041;-71
2023/04/30 09:14:08;;;;;;;4.93;1.30;;;16.90;97.30;;;;;;5045929;28;20136;-72
2023/04/30 09:16:46;;;;;;;3.50;1.30;;;17.00;98.00;;;;;;5044511;28;20123;-71
2023/04/30 09:19:26;;;;;;;4.00;1.60;;;17.10;96.90;;;;;;5017789;28;20500;-73
2023/04/30 09:21:57;;;;;;;4.80;1.58;;;17.10;96.90;;;;;;5045677;28;20416;-71
2023/04/30 09:24:24;;;;;;;2.45;1.20;;;17.20;97.80;;;;;;5044577;28;20036;-72
2023/04/30 09:26:50;;;;;;;3.33;1.10;;;17.20;96.90;;;;;;5035665;28;20472;-71
2023/04/30 09:29:16;;;;;;;4.03;1.13;;;17.20;96.50;;;;;;5044701;28;20064;-71
2023/04/30 09:31:44;;;;;;;4.65;1.45;;;17.20;96.40;;;;;;5031896;28;20060;-70
2023/04/30 09:34:10;;;;;;;2.35;1.55;;;17.20;97.60;;;;;;5041587;28;20033;-71
2023/04/30 09:36:53;;;;;;;4.20;1.63;;;17.40;96.60;;;;;;5044854;28;20047;-72
2023/04/30 09:39:19;;;;;;;4.57;1.15;;;17.30;96.20;;;;;;5042429;28;20067;-70
2023/04/30 09:41:45;;;;;;;2.97;1.00;;;17.30;96.70;;;;;;5029046;28;20041;-71
2023/04/30 09:44:31;;;;;;;3.67;1.40;;;17.30;96.60;;;;;;5045577;28;20040;-71
2023/04/30 09:46:57;;;;;;;5.30;1.30;;;17.40;95.50;;;;;;5035572;28;20033;-71
2023/04/30 09:49:23;;;;;;;2.75;1.20;;;17.50;95.60;;;;;;5043835;28;20405;-73
2023/04/30 09:51:57;;;;;;;2.70;1.20;;;17.40;96.10;;;;;;5044585;28;20040;-71
2023/04/30 09:54:32;;;;;;;2.60;1.40;;;17.20;96.10;;;;;;5043912;28;20064;-72
2023/04/30 09:57:00;;;;;;;2.15;1.10;;;17.30;95.80;;;;;;5045100;28;20523;-71
2023/04/30 09:59:31;;;;;;;2.72;1.40;;;17.40;96.90;;;;;;5033722;28;20041;-71
2023/04/30 10:02:02;;;;;;;4.07;1.92;;;17.50;96.50;;;;;;5033101;28;20041;-70
2023/04/30 10:04:57;;;;;;;3.95;1.67;;;17.60;95.70;;;;;;5047608;28;20037;-71
2023/04/30 10:07:28;;;;;;;2.13;0.85;;;17.60;95.60;;;;;;5039502;28;20090;-72
2023/04/30 10:09:57;;;;;;;4.57;1.33;;;17.80;96.70;;;;;;5048378;28;20072;-71
2023/04/30 10:12:43;;;;;;;2.47;1.00;;;17.90;96.70;;;;;;5047470;28;20033;-71
2023/04/30 10:15:19;;;;;;;2.20;1.10;;;18.00;96.00;;;;;;5045926;28;20137;-71
2023/04/30 10:18:05;;;;;;;2.90;1.30;;;17.90;95.50;;;;;;5034133;28;20032;-71
2023/04/30 10:20:38;;;;;;;2.70;1.33;;;18.00;96.10;;;;;;5046663;28;20147;-71
2023/04/30 10:23:07;;;;;;;2.85;1.20;;;18.10;96.60;;;;;;5045555;28;20025;-71
2023/04/30 10:25:37;;;;;;;2.72;1.23;;;18.10;94.70;;;;;;5046875;28;20033;-71
2023/04/30 10:28:04;;;;;;;2.38;1.10;;;18.10;96.00;;;;;;5045843;28;20059;-70
2023/04/30 10:30:34;;;;;;;2.45;1.05;;;18.10;95.20;;;;;;5046967;28;20080;-72
2023/04/30 10:33:22;;;;;;;;;;;18.20;95.20;;;;;;5030501;28;20088;-72
2023/04/30 10:36:12;;;;;;;1.55;1.02;;;18.10;95.30;;;;;;5038753;28;20036;-72
2023/04/30 10:38:38;;;;;;;3.47;1.85;;;17.90;95.00;;;;;;5047197;28;20058;-71
2023/04/30 10:41:06;;;;;;;4.18;1.27;;;17.90;95.30;;;;;;5038838;28;20051;-71
2023/04/30 10:43:35;;;;;;;2.05;1.20;;;17.80;95.50;;;;;;5030281;28;20044;-71
2023/04/30 10:46:01;;;;;;;4.80;1.25;;;17.80;95.40;;;;;;5044881;28;20393;-71
2023/04/30 10:48:34;;;;;;;3.50;1.10;;;17.70;95.50;;;;;;5046841;28;20085;-71
2023/04/30 10:51:03;;;;;;;3.47;1.50;;;17.70;96.30;;;;;;5048024;28;20029;-71
2023/04/30 10:53:30;;;;;;;3.28;1.50;;;17.80;95.20;;;;;;5044767;28;20128;-71
2023/04/30 10:56:08;;;;;;;3.42;1.40;;;17.90;95.60;;;;;;5047902;28;20032;-70
2023/04/30 10:58:38;;;;;;;5.25;1.10;;;17.80;96.70;;;;;;5031546;28;20044;-72
2023/04/30 11:01:09;;;;;;;3.10;0.93;;;18.00;96.30;;;;;;5048319;28;20063;-71
2023/04/30 11:03:36;;;;;;;2.92;0.93;;;18.20;95.20;;;;;;5036422;28;20500;-71
2023/04/30 11:06:14;;;;;;;1.77;0.70;;;18.20;95.50;;;;;;5038606;28;20037;-71
2023/04/30 11:08:46;;;;;;;2.45;0.60;;;18.40;95.80;;;;;;5045745;28;20120;-71
2023/04/30 11:11:21;;;;;;;2.65;1.08;;;18.50;94.00;;;;;;5033943;28;20033;-72
2023/04/30 11:13:59;;;;;;;1.88;0.93;;;18.50;93.90;;;;;;5034923;28;20124;-72
2023/04/30 11:16:34;;;;;;;2.42;0.85;;;18.50;94.20;;;;;;5044716;28;20455;-71
2023/04/30 11:19:09;;;;;;;1.98;1.00;;;18.40;94.00;;;;;;5043377;28;20029;-72
2023/04/30 11:21:39;;;;;;;2.00;0.90;;;18.50;94.80;;;;;;5030939;28;20041;-71
2023/04/30 11:24:05;;;;;;;2.72;0.77;;;18.70;95.00;;;;;;5047454;28;20048;-72
2023/04/30 11:27:04;;;;;;;7.07;1.10;;;18.70;94.00;;;;;;5046472;28;20037;-71
2023/04/30 11:29:37;;;;;;;2.17;0.90;;;18.80;94.00;;;;;;5034046;28;20084;-71
2023/04/30 11:32:03;;;;;;;2.17;1.20;;;18.80;94.00;;;;;;5044064;28;20489;-71
2023/04/30 11:34:29;;;;;;;1.95;0.82;;;18.70;93.80;;;;;;5045431;28;20033;-71
2023/04/30 11:36:58;;;;;;;1.45;0.90;;;18.70;94.10;;;;;;5047577;28;20550;-71
2023/04/30 11:39:34;;;;;;;4.60;0.82;;;18.80;94.70;;;;;;5045238;28;20717;-72
2023/04/30 11:42:03;;;;;;;1.65;0.70;;;18.90;94.50;;;;;;5032421;28;20086;-72
2023/04/30 11:44:34;;;;;;;1.90;0.77;;;18.90;94.10;;;;;;5043420;28;20402;-71
2023/04/30 11:47:00;;;;;;;2.03;0.93;;;19.00;94.40;;;;;;5032475;28;20037;-71
2023/04/30 11:49:36;;;;;;;1.70;0.90;;;19.10;94.60;;;;;;5042269;28;20041;-71
2023/04/30 11:52:05;;;;;;;3.25;0.73;;;19.30;93.50;;;;;;5027634;28;20116;-72
2023/04/30 11:54:31;;;;;;;1.83;0.80;;;19.40;93.00;;;;;;5045446;28;20033;-72
2023/04/30 11:57:02;;;;;;;1.50;0.57;;;19.40;93.40;;;;;;5046988;28;20044;-71
2023/04/30 11:59:29;;;;;;;2.88;1.00;;;19.60;93.30;;;;;;5034999;28;20095;-71
2023/04/30 12:02:00;;;;;;;1.00;0.40;;;19.60;92.90;;;;;;5030647;28;20584;-72
2023/04/30 12:04:26;;;;;;;3.10;0.90;;;19.80;92.60;;;;;;5042474;28;20037;-72
2023/04/30 12:06:59;;;;;;;1.05;0.65;;;19.70;91.60;;;;;;5035166;28;20044;-72
2023/04/30 12:09:25;;;;;;;1.13;0.50;;;19.70;92.10;;;;;;5029805;28;20044;-71
2023/04/30 12:11:57;;;;;;;0.90;0.28;;;19.60;92.30;;;;;;5034964;28;20037;-71
2023/04/30 12:14:24;;;;;;;2.45;0.50;;;19.60;92.50;;;;;;5045169;28;20029;-73
2023/04/30 12:16:59;;;;;;;1.15;0.35;;;19.70;90.70;;;;;;5046501;28;20842;-71
2023/04/30 12:19:24;;;;;;;1.58;0.50;;;19.80;90.90;;;;;;5041593;28;20045;-72
2023/04/30 12:21:53;;;;;;;1.15;0.60;;;19.80;91.20;;;;;;5035293;28;20040;-71
2023/04/30 12:24:19;;;;;;;2.65;0.38;;;19.70;91.80;;;;;;5033980;28;20033;-74
2023/04/30 12:26:45;;;;;;;2.08;0.50;;;19.70;91.70;;;;;;5045588;28;20089;-71
2023/04/30 12:29:16;;;;;;;1.30;0.43;;;19.70;92.30;;;;;;5034743;28;20033;-70
2023/04/30 12:31:42;;;;;;;3.97;0.93;;;19.60;92.40;;;;;;5045131;28;20063;-71
2023/04/30 12:34:14;;;;;;;2.33;0.45;;;19.50;92.30;;;;;;5045208;28;20434;-71
2023/04/30 12:36:43;;;;;;;2.38;1.00;;;19.30;92.10;;;;;;5035826;28;20094;-70
2023/04/30 12:39:10;;;;;;;1.70;0.45;;;19.10;92.40;;;;;;5035947;28;20485;-71
2023/04/30 12:41:40;;;;;;;1.10;0.40;;;19.00;93.00;;;;;;5045387;28;20119;-72
2023/04/30 12:44:19;;;;;;;3.95;0.95;;;19.00;92.30;;;;;;5046014;28;20057;-72
2023/04/30 12:46:46;;;;;;;3.80;0.68;;;18.90;92.00;;;;;;5045366;28;20561;-71
2023/04/30 12:49:23;;;;;;;1.55;0.47;;;18.90;92.20;;;;;;5045807;28;20040;-72
2023/04/30 12:51:49;;;;;;;1.67;0.60;;;18.70;92.80;;;;;;5034979;28;20028;-71
2023/04/30 12:54:14;;;;;;;2.58;0.45;;;18.70;92.90;;;;;;5045263;28;20047;-70
2023/04/30 12:57:00;;;;;;;3.25;0.60;;;18.70;92.90;;;;;;5045480;28;20405;-70
2023/04/30 12:59:26;;;;;;;4.05;0.63;;;18.80;93.20;;;;;;5040548;28;20147;-70